createdAt,value
2022-10-24T00:02:23.794Z,97961.81
2022-10-24T00:04:50.321Z,97958.19
2022-10-24T00:07:16.837Z,97956.06
2022-10-24T00:09:43.368Z,97956.16
2022-10-24T00:12:09.998Z,97969.25
2022-10-24T00:14:36.772Z,97970.53
2022-10-24T00:17:04.208Z,97965.13
2022-10-24T00:19:30.712Z,97957.16
2022-10-24T00:21:57.160Z,97955.91
2022-10-24T00:24:25.148Z,97943.78
2022-10-24T00:26:52.210Z,97950.59
2022-10-24T00:29:18.824Z,97955.97
2022-10-24T00:31:45.390Z,97966.38
2022-10-24T00:34:11.881Z,97961.31
2022-10-24T00:36:38.769Z,97965.03
2022-10-24T00:39:05.228Z,97958.22
2022-10-24T00:41:38.083Z,97952.56
2022-10-24T00:44:17.727Z,97952.91
2022-10-24T00:46:50.023Z,97955.22
2022-10-24T00:49:21.268Z,97946.94
2022-10-24T00:51:51.018Z,97955.75
2022-10-24T00:54:17.964Z,97946.84
2022-10-24T00:56:55.243Z,97949.16
2022-10-24T00:59:22.306Z,97947.06
2022-10-24T01:01:49.139Z,97934.81
2022-10-24T01:04:15.891Z,97934.94
2022-10-24T01:06:47.931Z,97942.56
2022-10-24T01:09:14.325Z,97947.88
2022-10-24T01:11:56.715Z,97935.31
2022-10-24T01:14:37.961Z,97936.09
2022-10-24T01:17:09.577Z,97937.19
2022-10-24T01:19:38.712Z,97936.88
2022-10-24T01:22:22.662Z,97936.06
2022-10-24T01:24:51.871Z,97935.66
2022-10-24T01:27:33.640Z,97928.28
2022-10-24T01:30:13.324Z,97937.34
2022-10-24T01:33:44.789Z,97938.81
2022-10-24T01:36:18.329Z,97935.69
2022-10-24T01:38:50.487Z,97939.06
2022-10-24T01:41:21.119Z,97925.75
2022-10-24T01:46:29.781Z,97942.34
2022-10-24T01:49:09.520Z,97943.31
2022-10-24T01:51:38.550Z,97947.06
2022-10-24T01:54:07.116Z,97942.72
2022-10-24T01:56:33.705Z,97934.50
2022-10-24T01:59:29.397Z,97943.44
2022-10-24T02:02:08.385Z,97952.19
2022-10-24T02:04:41.013Z,97940.59
2022-10-24T02:07:10.265Z,97942.84
2022-10-24T02:09:38.968Z,97946.50
2022-10-24T02:12:09.346Z,97944.59
2022-10-24T02:14:46.165Z,97945.84
2022-10-24T02:17:12.816Z,97938.72
2022-10-24T02:19:39.337Z,97931.41
2022-10-24T02:22:23.556Z,97934.88
2022-10-24T02:24:55.858Z,97933.38
2022-10-24T02:27:28.590Z,97926.06
2022-10-24T02:30:06.562Z,97928.84
2022-10-24T02:32:38.329Z,97929.78
2022-10-24T02:35:06.701Z,97930.16
2022-10-24T02:37:39.822Z,97927.78
2022-10-24T02:40:08.765Z,97932.81
2022-10-24T02:42:36.807Z,97909.63
2022-10-24T02:45:04.006Z,97917.47
2022-10-24T02:47:32.539Z,97917.56
2022-10-24T02:49:59.060Z,97925.41
2022-10-24T02:52:26.249Z,97929.75
2022-10-24T02:54:52.745Z,97922.28
2022-10-24T02:57:21.405Z,97918.94
2022-10-24T02:59:47.838Z,97917.91
2022-10-24T03:02:14.332Z,97918.75
2022-10-24T03:04:40.805Z,97916.56
2022-10-24T03:07:07.598Z,97912.97
2022-10-24T03:09:34.708Z,97908.31
2022-10-24T03:12:01.291Z,97913.66
2022-10-24T03:14:27.905Z,97921.78
2022-10-24T03:16:54.352Z,97924.53
2022-10-24T03:19:20.879Z,97937.38
2022-10-24T03:21:47.369Z,97939.22
2022-10-24T03:24:15.170Z,97938.25
2022-10-24T03:26:52.098Z,97939.50
2022-10-24T03:29:19.282Z,97943.63
2022-10-24T03:31:46.148Z,97940.50
2022-10-24T03:34:12.682Z,97937.06
2022-10-24T03:36:39.249Z,97941.13
2022-10-24T03:39:05.785Z,97937.88
2022-10-24T03:41:32.303Z,97948.19
2022-10-24T03:43:58.781Z,97943.34
2022-10-24T03:46:25.336Z,97942.31
2022-10-24T03:48:51.891Z,97932.28
2022-10-24T03:51:18.391Z,97925.84
2022-10-24T03:53:44.921Z,97931.91
2022-10-24T03:56:11.522Z,97924.63
2022-10-24T03:58:38.013Z,97935.13
2022-10-24T04:01:04.669Z,97937.88
2022-10-24T04:03:31.259Z,97939.31
2022-10-24T04:05:57.702Z,97938.06
2022-10-24T04:08:24.242Z,97940.59
2022-10-24T04:10:50.811Z,97953.66
2022-10-24T04:13:17.330Z,97936.81
2022-10-24T04:15:43.825Z,97944.59
2022-10-24T04:18:10.386Z,97943.97
2022-10-24T04:20:36.954Z,97940.69
2022-10-24T04:23:04.574Z,97940.97
2022-10-24T04:25:31.247Z,97933.25
2022-10-24T04:27:57.693Z,97941.09
2022-10-24T04:30:24.199Z,97939.09
2022-10-24T04:32:50.643Z,97943.63
2022-10-24T04:35:17.329Z,97945.25
2022-10-24T04:37:43.778Z,97946.88
2022-10-24T04:40:10.695Z,97951.44
2022-10-24T04:42:37.470Z,97949.09
2022-10-24T04:45:04.199Z,97942.38
2022-10-24T04:47:30.645Z,97951.75
2022-10-24T04:49:57.202Z,97950.03
2022-10-24T04:52:23.706Z,97949.38
2022-10-24T04:54:50.186Z,97949.50
2022-10-24T04:57:16.669Z,97950.53
2022-10-24T04:59:43.165Z,97960.22
2022-10-24T05:02:09.670Z,97955.69
2022-10-24T05:04:36.177Z,97951.97
2022-10-24T05:07:02.774Z,97950.31
2022-10-24T05:09:29.246Z,97950.97
2022-10-24T05:11:56.498Z,97961.31
2022-10-24T05:14:23.593Z,97949.56
2022-10-24T05:16:50.286Z,97959.22
2022-10-24T05:19:17.385Z,97952.91
2022-10-24T05:21:43.817Z,97958.78
2022-10-24T05:24:10.392Z,97953.22
2022-10-24T05:26:36.921Z,97957.59
2022-10-24T05:29:03.676Z,97960.09
2022-10-24T05:34:01.706Z,97968.22
2022-10-24T05:36:28.149Z,97974.34
2022-10-24T05:38:54.614Z,97967.81
2022-10-24T05:41:21.073Z,97973.22
2022-10-24T05:43:47.592Z,97970.75
2022-10-24T05:46:14.044Z,97969.94
2022-10-24T05:48:40.558Z,97978.88
2022-10-24T05:51:07.080Z,97972.94
2022-10-24T05:53:33.584Z,97972.91
2022-10-24T05:56:00.059Z,97985.25
2022-10-24T05:58:27.455Z,97982.00
2022-10-24T06:00:54.361Z,97994.50
2022-10-24T06:03:21.579Z,97991.31
2022-10-24T06:05:48.547Z,97991.31
2022-10-24T06:08:15.012Z,97998.63
2022-10-24T06:10:41.607Z,97989.84
2022-10-24T06:13:08.226Z,97989.94
2022-10-24T06:15:34.712Z,97991.78
2022-10-24T06:18:01.181Z,97985.66
2022-10-24T06:20:27.807Z,97986.03
2022-10-24T06:22:54.295Z,97987.22
2022-10-24T06:25:20.785Z,97984.16
2022-10-24T06:27:48.482Z,97980.78
2022-10-24T06:30:15.220Z,97984.16
2022-10-24T06:32:44.406Z,97979.66
2022-10-24T06:35:13.457Z,97978.59
2022-10-24T06:37:42.870Z,97983.56
2022-10-24T06:40:12.613Z,97971.94
2022-10-24T06:42:39.114Z,97988.63
2022-10-24T06:45:06.358Z,97994.16
2022-10-24T06:47:32.930Z,97987.22
2022-10-24T06:49:59.394Z,97994.81
2022-10-24T06:52:25.889Z,98000.47
2022-10-24T06:54:52.374Z,97997.91
2022-10-24T06:57:18.857Z,97990.50
2022-10-24T06:59:45.547Z,97994.13
2022-10-24T07:02:16.560Z,97985.91
2022-10-24T07:04:43.356Z,97986.78
2022-10-24T07:07:16.029Z,98003.88
2022-10-24T07:09:42.610Z,98001.47
2022-10-24T07:12:09.488Z,98004.03
2022-10-24T07:14:36.236Z,98007.50
2022-10-24T07:17:04.404Z,98027.34
2022-10-24T07:19:33.878Z,98031.13
2022-10-24T07:22:03.160Z,98040.75
2022-10-24T07:24:29.661Z,98028.31
2022-10-24T07:26:56.145Z,98039.72
2022-10-24T07:29:22.609Z,98039.97
2022-10-24T07:31:49.144Z,98038.44
2022-10-24T07:34:16.356Z,98040.84
2022-10-24T07:36:43.911Z,98049.00
2022-10-24T07:39:11.578Z,98043.03
2022-10-24T07:41:41.242Z,98037.47
2022-10-24T07:44:08.211Z,98033.09
2022-10-24T07:46:34.909Z,98039.88
2022-10-24T07:49:01.420Z,98042.63
2022-10-24T07:51:29.668Z,98036.97
2022-10-24T07:53:59.610Z,98028.41
2022-10-24T07:56:26.323Z,98026.69
2022-10-24T07:58:52.910Z,98036.66
2022-10-24T08:01:22.127Z,98036.31
2022-10-24T08:03:49.288Z,98027.81
2022-10-24T08:06:19.434Z,98034.16
2022-10-24T08:08:46.177Z,98032.44
2022-10-24T08:11:21.978Z,98029.50
2022-10-24T08:13:49.761Z,98023.22
2022-10-24T08:16:18.345Z,98022.34
2022-10-24T08:18:45.016Z,98027.34
2022-10-24T08:21:14.143Z,98025.06
2022-10-24T08:23:44.086Z,98024.69
2022-10-24T08:26:13.783Z,98026.38
2022-10-24T08:28:41.247Z,98029.78
2022-10-24T08:31:11.767Z,98028.56
2022-10-24T08:33:38.922Z,98018.59
2022-10-24T08:36:13.424Z,98031.50
2022-10-24T08:38:40.051Z,98020.66
2022-10-24T08:41:06.979Z,98026.25
2022-10-24T08:43:33.718Z,98023.72
2022-10-24T08:46:28.371Z,98023.19
2022-10-24T08:49:08.975Z,98018.72
2022-10-24T08:51:43.840Z,98027.31
2022-10-24T08:54:14.696Z,98015.38
2022-10-24T08:56:41.641Z,98027.38
2022-10-24T08:59:12.304Z,98014.72
2022-10-24T09:01:50.622Z,98007.53
2022-10-24T09:04:21.901Z,98009.66
2022-10-24T09:06:51.780Z,98011.16
2022-10-24T09:09:18.720Z,98012.66
2022-10-24T09:11:48.344Z,98013.34
2022-10-24T09:14:18.010Z,98021.19
2022-10-24T09:16:49.504Z,98028.63
2022-10-24T09:19:20.867Z,98024.31
2022-10-24T09:21:48.405Z,98031.13
2022-10-24T09:24:27.109Z,98028.03
2022-10-24T09:26:53.944Z,98015.00
2022-10-24T09:29:20.508Z,98016.38
2022-10-24T09:31:49.441Z,98031.88
2022-10-24T09:34:17.464Z,98028.34
2022-10-24T09:36:44.743Z,98018.06
2022-10-24T09:39:23.630Z,98027.63
2022-10-24T09:41:50.474Z,98032.00
2022-10-24T09:44:49.520Z,98027.72
2022-10-24T09:47:27.884Z,98028.22
2022-10-24T09:49:55.064Z,98036.47
2022-10-24T09:52:24.643Z,98039.44
2022-10-24T09:55:17.884Z,98048.34
2022-10-24T09:57:45.309Z,98047.00
2022-10-24T10:00:32.911Z,98052.06
2022-10-24T10:03:02.501Z,98049.09
2022-10-24T10:05:44.293Z,98073.97
2022-10-24T10:08:18.823Z,98063.56
2022-10-24T10:10:56.595Z,98067.97
2022-10-24T10:13:25.304Z,98072.34
2022-10-24T10:16:04.007Z,98069.16
2022-10-24T10:18:39.633Z,98073.22
2022-10-24T10:21:25.165Z,98078.91
2022-10-24T10:23:56.897Z,98085.03
2022-10-24T10:26:24.994Z,98085.84
2022-10-24T10:29:06.841Z,98083.06
2022-10-24T10:31:43.971Z,98091.81
2022-10-24T10:34:30.974Z,98087.06
2022-10-24T10:37:18.938Z,98086.41
2022-10-24T10:40:08.344Z,98093.34
2022-10-24T10:42:41.930Z,98090.44
2022-10-24T10:45:22.225Z,98084.72
2022-10-24T10:48:07.505Z,98088.44
2022-10-24T10:50:48.334Z,98090.28
2022-10-24T10:53:40.358Z,98096.97
2022-10-24T10:56:15.692Z,98103.09
2022-10-24T10:58:52.095Z,98103.25
2022-10-24T11:01:27.982Z,98093.47
2022-10-24T11:04:21.014Z,98097.56
2022-10-24T11:07:14.954Z,98093.59
2022-10-24T11:09:46.771Z,98094.69
2022-10-24T11:12:19.314Z,98088.19
2022-10-24T11:15:00.686Z,98098.47
2022-10-24T11:17:32.373Z,98078.34
2022-10-24T11:20:07.449Z,98094.44
2022-10-24T11:22:50.898Z,98084.41
2022-10-24T11:26:02.450Z,98074.16
2022-10-24T11:28:44.617Z,98062.03
2022-10-24T11:31:18.705Z,98067.75
2022-10-24T11:34:00.517Z,98070.22
2022-10-24T11:37:06.061Z,98078.91
2022-10-24T11:39:35.585Z,98078.66
2022-10-24T11:42:12.665Z,98074.00
2022-10-24T11:45:01.141Z,98058.53
2022-10-24T11:47:27.595Z,98065.06
2022-10-24T11:50:00.987Z,98069.56
2022-10-24T11:52:30.916Z,98074.53
2022-10-24T11:55:13.308Z,98066.91
2022-10-24T11:57:45.381Z,98075.91
2022-10-24T12:00:48.325Z,98072.44
2022-10-24T12:03:24.762Z,98069.59
2022-10-24T12:06:20.226Z,98052.53
2022-10-24T12:09:05.494Z,98049.13
2022-10-24T12:11:53.986Z,98051.25
2022-10-24T12:14:29.760Z,98045.19
2022-10-24T12:17:18.958Z,98044.75
2022-10-24T12:19:46.588Z,98052.97
2022-10-24T12:22:23.631Z,98053.81
2022-10-24T12:25:03.955Z,98035.34
2022-10-24T12:27:35.652Z,98050.94
2022-10-24T12:30:21.764Z,98041.91
2022-10-24T12:32:52.338Z,98037.50
2022-10-24T12:35:31.711Z,98040.53
2022-10-24T12:37:58.873Z,98043.72
2022-10-24T12:40:52.124Z,98034.06
2022-10-24T12:43:36.488Z,98039.47
2022-10-24T12:46:18.852Z,98039.75
2022-10-24T12:48:58.403Z,98037.59
2022-10-24T12:51:40.642Z,98044.00
2022-10-24T12:54:13.316Z,98040.78
2022-10-24T12:57:09.396Z,98040.50
2022-10-24T12:59:51.450Z,98039.06
2022-10-24T13:02:21.123Z,98039.44
2022-10-24T13:05:07.964Z,98045.59
2022-10-24T13:07:47.119Z,98046.44
2022-10-24T13:10:37.624Z,98045.09
2022-10-24T13:13:29.020Z,98045.56
2022-10-24T13:16:10.922Z,98049.28
2022-10-24T13:19:17.142Z,98050.13
2022-10-24T13:21:47.594Z,98045.84
2022-10-24T13:24:16.841Z,98047.19
2022-10-24T13:26:58.420Z,98049.88
2022-10-24T13:29:27.968Z,98044.28
2022-10-24T13:32:16.318Z,98055.22
2022-10-24T13:34:54.718Z,98044.75
2022-10-24T13:37:34.946Z,98046.94
2022-10-24T13:40:33.758Z,98044.00
2022-10-24T13:43:07.542Z,98046.41
2022-10-24T13:46:00.177Z,98045.88
2022-10-24T13:48:34.819Z,98063.06
2022-10-24T13:51:20.213Z,98052.31
2022-10-24T13:53:58.963Z,98060.38
2022-10-24T13:56:26.488Z,98057.41
2022-10-24T13:58:53.117Z,98060.34
2022-10-24T14:01:27.329Z,98048.00
2022-10-24T14:03:55.405Z,98050.63
2022-10-24T14:06:27.580Z,98057.19
2022-10-24T14:09:06.736Z,98054.50
2022-10-24T14:11:52.855Z,98046.44
2022-10-24T14:15:27.183Z,98055.81
2022-10-24T14:18:54.804Z,98062.59
2022-10-24T14:25:30.844Z,98062.81
2022-10-24T14:28:32.159Z,98077.81
2022-10-24T14:31:05.498Z,98082.06
2022-10-24T14:33:42.065Z,98067.56
2022-10-24T14:36:09.495Z,98075.59
2022-10-24T14:38:36.473Z,98072.09
2022-10-24T14:41:10.431Z,98076.34
2022-10-24T14:43:42.194Z,98083.56
2022-10-24T14:46:12.264Z,98082.34
2022-10-24T14:48:41.968Z,98091.25
2022-10-24T14:51:20.937Z,98093.41
2022-10-24T14:53:50.129Z,98096.78
2022-10-24T14:56:36.812Z,98091.13
2022-10-24T14:59:07.189Z,98099.09
2022-10-24T15:01:34.057Z,98095.16
2022-10-24T15:04:03.584Z,98098.66
2022-10-24T15:06:38.230Z,98105.59
2022-10-24T15:09:10.914Z,98105.75
2022-10-24T15:12:03.271Z,98114.28
2022-10-24T15:14:41.340Z,98106.19
2022-10-24T15:17:17.099Z,98107.41
2022-10-24T15:19:46.095Z,98116.53
2022-10-24T15:22:30.195Z,98113.25
2022-10-24T15:25:00.133Z,98113.69
2022-10-24T15:27:30.551Z,98118.16
2022-10-24T15:29:57.307Z,98105.69
2022-10-24T15:32:24.368Z,98111.28
2022-10-24T15:34:54.350Z,98108.72
2022-10-24T15:37:24.310Z,98116.75
2022-10-24T15:39:52.890Z,98122.25
2022-10-24T15:42:22.554Z,98118.69
2022-10-24T15:44:49.412Z,98124.28
2022-10-24T15:47:16.019Z,98124.91
2022-10-24T15:49:42.650Z,98122.28
2022-10-24T15:52:15.515Z,98128.81
2022-10-24T15:54:42.284Z,98125.78
2022-10-24T15:57:13.147Z,98122.22
2022-10-24T15:59:39.949Z,98129.78
2022-10-24T16:02:16.291Z,98137.69
2022-10-24T16:04:42.977Z,98139.47
2022-10-24T16:07:10.590Z,98141.97
2022-10-24T16:09:37.240Z,98140.53
2022-10-24T16:12:04.335Z,98150.22
2022-10-24T16:14:30.966Z,98144.09
2022-10-24T16:16:58.469Z,98151.94
2022-10-24T16:19:28.966Z,98158.03
2022-10-24T16:21:59.590Z,98153.97
2022-10-24T16:24:27.229Z,98154.78
2022-10-24T16:26:54.147Z,98157.72
2022-10-24T16:29:20.822Z,98161.84
2022-10-24T16:31:49.028Z,98169.00
2022-10-24T16:34:15.586Z,98164.91
2022-10-24T16:36:42.262Z,98171.50
2022-10-24T16:39:09.254Z,98169.03
2022-10-24T16:41:35.963Z,98175.31
2022-10-24T16:44:03.723Z,98174.22
2022-10-24T16:46:30.684Z,98171.53
2022-10-24T16:48:58.255Z,98168.88
2022-10-24T16:51:32.418Z,98164.84
2022-10-24T16:54:01.142Z,98169.72
2022-10-24T16:56:28.106Z,98166.91
2022-10-24T16:58:54.630Z,98166.00
2022-10-24T17:01:23.159Z,98168.91
2022-10-24T17:03:49.775Z,98176.63
2022-10-24T17:06:16.344Z,98164.94
2022-10-24T17:08:43.333Z,98165.50
2022-10-24T17:11:32.279Z,98162.53
2022-10-24T17:13:58.028Z,98167.81
2022-10-24T17:16:24.734Z,98173.25
2022-10-24T17:19:05.420Z,98170.59
2022-10-24T17:21:39.053Z,98177.38
2022-10-24T17:24:10.303Z,98186.50
2022-10-24T17:26:36.957Z,98181.34
2022-10-24T17:29:04.735Z,98189.03
2022-10-24T17:31:31.520Z,98197.16
2022-10-24T17:33:58.343Z,98197.31
2022-10-24T17:36:28.124Z,98198.72
2022-10-24T17:39:07.616Z,98201.38
2022-10-24T17:41:40.738Z,98210.06
2022-10-24T17:44:14.298Z,98206.09
2022-10-24T17:46:40.998Z,98209.13
2022-10-24T17:49:10.540Z,98211.34
2022-10-24T17:51:39.866Z,98208.31
2022-10-24T17:54:09.088Z,98201.97
2022-10-24T17:56:35.786Z,98210.19
2022-10-24T17:59:02.543Z,98211.28
2022-10-24T18:01:29.250Z,98212.81
2022-10-24T18:03:55.902Z,98222.69
2022-10-24T18:06:22.484Z,98218.31
2022-10-24T18:08:53.355Z,98214.19
2022-10-24T18:11:19.932Z,98220.66
2022-10-24T18:13:46.421Z,98223.28
2022-10-24T18:16:15.709Z,98220.41
2022-10-24T18:18:43.911Z,98232.44
2022-10-24T18:23:46.715Z,98229.25
2022-10-24T18:26:17.838Z,98237.34
2022-10-24T18:28:46.730Z,98239.47
2022-10-24T18:31:15.946Z,98243.16
2022-10-24T18:33:43.255Z,98237.84
2022-10-24T18:36:25.657Z,98237.94
2022-10-24T18:38:59.094Z,98236.47
2022-10-24T18:41:37.572Z,98236.69
2022-10-24T18:44:23.213Z,98251.81
2022-10-24T18:46:51.815Z,98248.22
2022-10-24T18:49:19.276Z,98241.31
2022-10-24T18:52:10.439Z,98255.41
2022-10-24T18:54:53.649Z,98259.75
2022-10-24T18:57:27.090Z,98259.06
2022-10-24T18:59:54.815Z,98263.59
2022-10-24T19:05:25.010Z,98264.53
2022-10-24T19:07:51.936Z,98262.44
2022-10-24T19:10:27.073Z,98265.19
2022-10-24T19:12:57.413Z,98266.31
2022-10-24T19:15:24.460Z,98276.50
2022-10-24T19:17:51.774Z,98277.72
2022-10-24T19:20:21.432Z,98279.06
2022-10-24T19:22:48.667Z,98286.84
2022-10-24T19:25:16.571Z,98287.00
2022-10-24T19:27:43.533Z,98283.41
2022-10-24T19:30:11.620Z,98288.88
2022-10-24T19:32:38.329Z,98286.66
2022-10-24T19:35:05.236Z,98293.38
2022-10-24T19:37:31.810Z,98292.09
2022-10-24T19:39:58.303Z,98291.28
2022-10-24T19:42:24.894Z,98291.94
2022-10-24T19:44:54.466Z,98288.81
2022-10-24T19:47:21.769Z,98296.75
2022-10-24T19:49:49.404Z,98292.09
2022-10-24T19:52:16.177Z,98299.50
2022-10-24T19:54:42.724Z,98292.91
2022-10-24T19:57:09.519Z,98288.22
2022-10-24T19:59:36.262Z,98286.22
2022-10-24T20:02:04.348Z,98296.44
2022-10-24T20:04:31.560Z,98300.78
2022-10-24T20:06:58.113Z,98304.50
2022-10-24T20:09:24.650Z,98306.19
2022-10-24T20:11:51.194Z,98304.56
2022-10-24T20:14:17.898Z,98308.88
2022-10-24T20:16:44.425Z,98309.13
2022-10-24T20:19:10.948Z,98315.44
2022-10-24T20:21:37.754Z,98320.31
2022-10-24T20:24:08.805Z,98324.78
2022-10-24T20:26:36.116Z,98326.28
2022-10-24T20:29:03.827Z,98330.28
2022-10-24T20:31:34.041Z,98331.53
2022-10-24T20:34:07.052Z,98339.56
2022-10-24T20:36:35.779Z,98348.50
2022-10-24T20:39:03.221Z,98345.69
2022-10-24T20:41:29.965Z,98353.50
2022-10-24T20:43:56.654Z,98351.44
2022-10-24T20:46:23.239Z,98346.38
2022-10-24T20:48:49.746Z,98358.44
2022-10-24T20:51:18.973Z,98362.72
2022-10-24T20:53:45.588Z,98363.41
2022-10-24T20:56:14.929Z,98356.44
2022-10-24T20:58:43.024Z,98360.94
2022-10-24T21:01:12.681Z,98358.84
2022-10-24T21:03:39.498Z,98356.13
2022-10-24T21:06:14.244Z,98365.31
2022-10-24T21:08:40.816Z,98373.63
2022-10-24T21:11:07.799Z,98370.78
2022-10-24T21:13:34.304Z,98380.41
2022-10-24T21:16:02.077Z,98385.78
2022-10-24T21:18:28.555Z,98390.25
2022-10-24T21:20:54.970Z,98396.00
2022-10-24T21:23:21.422Z,98389.78
2022-10-24T21:25:47.916Z,98387.50
2022-10-24T21:28:14.406Z,98394.44
2022-10-24T21:30:40.867Z,98385.53
2022-10-24T21:33:10.589Z,98397.56
2022-10-24T21:35:39.909Z,98400.28
2022-10-24T21:38:06.488Z,98404.13
2022-10-24T21:40:32.968Z,98417.53
2022-10-24T21:43:00.961Z,98416.72
2022-10-24T21:45:27.456Z,98421.53
2022-10-24T21:47:53.891Z,98427.91
2022-10-24T21:50:20.378Z,98434.84
2022-10-24T21:52:47.111Z,98432.16
2022-10-24T21:55:13.879Z,98436.06
2022-10-24T21:57:40.328Z,98436.81
2022-10-24T22:00:07.550Z,98434.22
2022-10-24T22:02:34.082Z,98436.38
2022-10-24T22:05:00.613Z,98423.47
2022-10-24T22:09:58.448Z,98432.63
2022-10-24T22:12:25.268Z,98433.09
2022-10-24T22:14:51.706Z,98433.66
2022-10-24T22:17:18.158Z,98436.78
2022-10-24T22:19:44.656Z,98447.97
2022-10-24T22:22:11.106Z,98442.69
2022-10-24T22:24:37.592Z,98452.50
2022-10-24T22:27:04.116Z,98451.69
2022-10-24T22:29:30.599Z,98451.72
2022-10-24T22:31:57.365Z,98447.25
2022-10-24T22:34:25.384Z,98456.63
2022-10-24T22:37:24.848Z,98455.25
2022-10-24T22:39:51.621Z,98448.94
2022-10-24T22:42:20.203Z,98456.28
2022-10-24T22:44:47.919Z,98460.34
2022-10-24T22:48:03.129Z,98466.03
2022-10-24T22:50:54.705Z,98469.69
2022-10-24T22:53:31.095Z,98468.47
2022-10-24T22:56:22.469Z,98460.53
2022-10-24T22:58:49.548Z,98471.91
2022-10-24T23:01:23.989Z,98467.03
2022-10-24T23:04:18.003Z,98468.47
2022-10-24T23:06:48.548Z,98465.63
2022-10-24T23:09:15.028Z,98467.66
2022-10-24T23:11:41.975Z,98467.66
2022-10-24T23:14:10.251Z,98473.28
2022-10-24T23:16:50.257Z,98473.69
2022-10-24T23:19:20.481Z,98475.63
2022-10-24T23:21:52.528Z,98479.34
2022-10-24T23:24:19.457Z,98482.69
2022-10-24T23:26:54.862Z,98485.09
2022-10-24T23:29:33.109Z,98484.69
2022-10-24T23:32:00.322Z,98485.09
2022-10-24T23:34:27.634Z,98488.78
2022-10-24T23:37:03.827Z,98492.00
2022-10-24T23:39:33.220Z,98486.16
2022-10-24T23:42:01.042Z,98481.47
2022-10-24T23:44:27.971Z,98493.50
2022-10-24T23:47:05.683Z,98494.94
2022-10-24T23:49:40.035Z,98504.22
2022-10-24T23:52:28.534Z,98503.38
2022-10-24T23:54:55.324Z,98507.41
2022-10-24T23:57:22.075Z,98503.66
2022-10-24T23:59:48.527Z,98501.50
